createdAt,value
2019-04-04T00:32:21.040Z,17.20
2019-04-04T00:34:50.936Z,17.42
2019-04-04T00:37:20.947Z,17.07
2019-04-04T00:39:51.029Z,18.17
2019-04-04T00:42:20.993Z,18.10
2019-04-04T00:44:51.140Z,16.80
2019-04-04T00:47:21.171Z,17.12
2019-04-04T00:49:51.299Z,17.98
2019-04-04T00:52:21.406Z,17.27
2019-04-04T00:54:51.500Z,17.10
2019-04-04T00:57:21.602Z,17.30
2019-04-04T00:59:53.375Z,16.50
2019-04-04T01:02:23.138Z,17.57
2019-04-04T02:38:47.435Z,14.90
2019-04-04T02:41:17.409Z,14.63
2019-04-04T02:43:47.353Z,14.45
2019-04-04T02:46:17.215Z,15.68
2019-04-04T02:48:47.185Z,15.53
2019-04-04T02:51:17.102Z,16.32
2019-04-04T02:53:47.077Z,15.63
2019-04-04T02:56:17.086Z,16.60
2019-04-04T02:58:47.351Z,16.70
2019-04-04T03:01:17.441Z,15.85
2019-04-04T03:03:47.510Z,16.02
2019-04-04T03:06:17.474Z,16.48
2019-04-04T03:08:47.396Z,17.85
2019-04-04T03:11:21.190Z,16.57
2019-04-04T03:13:49.195Z,17.52
2019-04-04T03:16:21.534Z,16.87
2019-04-04T03:18:50.892Z,17.27
2019-04-04T03:21:23.495Z,17.23
2019-04-04T03:23:52.500Z,17.23
2019-04-04T03:26:24.145Z,17.85
2019-04-04T03:28:54.142Z,17.07
2019-04-04T03:31:24.087Z,15.80
2019-04-04T03:33:54.038Z,15.78
2019-04-04T03:36:24.050Z,15.32
2019-04-04T03:38:56.220Z,15.65
2019-04-04T03:41:27.609Z,14.78
2019-04-04T03:43:57.683Z,14.50
2019-04-04T03:46:27.590Z,14.10
2019-04-04T03:48:57.505Z,16.05
2019-04-04T03:51:27.397Z,13.80
2019-04-04T03:54:00.782Z,15.65
2019-04-04T03:56:33.277Z,13.83
2019-04-04T03:59:02.378Z,13.48
2019-04-04T04:01:33.287Z,13.72
2019-04-04T04:04:03.327Z,13.85
2019-04-04T04:06:33.308Z,14.95
2019-04-04T04:09:04.847Z,16.00
2019-04-04T04:11:37.495Z,16.23
2019-04-04T04:14:06.400Z,16.77
2019-04-04T04:16:36.442Z,17.92
2019-04-04T04:19:06.424Z,16.90
2019-04-04T04:21:36.543Z,16.75
2019-04-04T04:24:07.996Z,18.75
2019-04-04T04:26:41.970Z,18.80
2019-04-04T04:29:10.771Z,18.42
2019-04-04T04:31:40.658Z,19.23
2019-04-04T04:34:10.753Z,18.62
2019-04-04T04:36:40.559Z,18.42
2019-04-04T04:39:10.549Z,18.07
2019-04-04T04:41:40.353Z,18.92
2019-04-04T04:44:10.310Z,16.42
2019-04-04T04:46:40.450Z,16.70
2019-04-04T04:49:10.404Z,17.05
2019-04-04T04:51:43.111Z,15.15
2019-04-04T04:54:11.915Z,14.98
2019-04-04T04:56:41.992Z,15.13
2019-04-04T04:59:13.782Z,15.00
2019-04-04T05:01:43.935Z,14.50
2019-04-04T05:04:13.768Z,14.63
2019-04-04T05:06:43.736Z,15.00
2019-04-04T05:09:14.081Z,13.98
2019-04-04T05:11:44.806Z,12.95
2019-04-04T05:14:14.857Z,13.45
2019-04-04T05:16:45.844Z,12.58
2019-04-04T05:19:17.103Z,12.18
2019-04-04T05:21:47.417Z,12.73
2019-04-04T05:24:18.173Z,11.73
2019-04-04T05:26:48.635Z,11.80
2019-04-04T05:29:18.670Z,11.65
2019-04-04T05:31:50.094Z,11.20
2019-04-04T05:34:20.524Z,10.78
2019-04-04T05:36:50.384Z,11.45
2019-04-04T05:39:20.350Z,10.65
2019-04-04T05:41:50.348Z,10.15
2019-04-04T05:44:20.317Z,9.83
2019-04-04T05:46:51.927Z,9.95
2019-04-04T05:49:21.973Z,9.73
2019-04-04T05:51:51.949Z,9.35
2019-04-04T05:54:23.050Z,9.73
2019-04-04T05:56:53.072Z,9.40
2019-04-04T05:59:23.816Z,9.05
2019-04-04T06:01:54.509Z,9.58
2019-04-04T06:04:24.518Z,8.70
2019-04-04T06:06:55.742Z,9.75
2019-04-04T06:09:26.017Z,9.00
2019-04-04T06:11:56.069Z,9.10
2019-04-04T06:14:26.169Z,8.93
2019-04-04T06:16:57.886Z,8.73
2019-04-04T06:19:27.794Z,10.03
2019-04-04T06:21:57.765Z,9.75
2019-04-04T06:24:27.981Z,9.90
2019-04-04T06:26:58.029Z,9.83
2019-04-04T06:29:27.946Z,10.23
2019-04-04T06:31:59.941Z,9.50
2019-04-04T06:34:29.378Z,10.30
2019-04-04T06:36:59.389Z,10.35
2019-04-04T06:39:29.296Z,10.03
2019-04-04T06:42:02.878Z,10.35
2019-04-04T06:44:30.960Z,10.53
2019-04-04T06:47:02.143Z,10.13
2019-04-04T06:49:33.287Z,11.68
2019-04-04T06:52:03.890Z,10.70
2019-04-04T06:54:33.756Z,10.65
2019-04-04T06:57:04.697Z,11.18
2019-04-04T06:59:34.971Z,11.22
2019-04-04T07:02:05.295Z,11.63
2019-04-04T07:04:35.994Z,11.45
2019-04-04T07:07:06.100Z,13.25
2019-04-04T07:09:37.328Z,11.05
2019-04-04T07:12:07.500Z,11.70
2019-04-04T07:14:45.701Z,11.90
2019-04-04T07:17:09.988Z,11.35
2019-04-04T07:19:40.008Z,12.07
2019-04-04T07:22:10.003Z,12.13
2019-04-04T07:24:40.048Z,10.88
2019-04-04T07:27:09.927Z,10.98
2019-04-04T07:29:42.486Z,10.72
2019-04-04T07:32:12.395Z,11.12
2019-04-04T07:34:45.064Z,11.25
2019-04-04T07:37:13.974Z,10.20
2019-04-04T07:39:44.064Z,11.00
2019-04-04T07:42:15.546Z,11.22
2019-04-04T07:44:45.584Z,10.65
2019-04-04T07:47:16.148Z,10.88
2019-04-04T07:49:47.837Z,10.13
2019-04-04T07:52:17.736Z,10.30
2019-04-04T07:54:47.788Z,10.00
2019-04-04T07:57:19.871Z,9.93
2019-04-04T07:59:49.343Z,9.50
2019-04-04T08:02:19.242Z,9.65
2019-04-04T08:04:49.075Z,10.08
2019-04-04T08:07:19.125Z,9.68
2019-04-04T08:09:49.068Z,10.23
2019-04-04T08:12:19.095Z,10.38
2019-04-04T08:14:50.617Z,10.43
2019-04-04T08:17:20.591Z,10.35
2019-04-04T08:19:59.693Z,10.38
2019-04-04T08:22:22.472Z,9.95
2019-04-04T08:24:52.522Z,10.13
2019-04-04T08:27:22.564Z,9.78
2019-04-04T08:29:52.385Z,9.95
2019-04-04T08:32:22.212Z,9.70
2019-04-04T08:34:52.168Z,9.68
2019-04-04T08:37:22.214Z,10.60
2019-04-04T08:39:52.339Z,9.68
2019-04-04T08:42:22.477Z,9.60
2019-04-04T08:44:52.504Z,8.85
2019-04-04T08:47:22.415Z,10.15
2019-04-04T08:50:06.463Z,10.50
2019-04-04T08:52:27.193Z,9.98
2019-04-04T08:54:57.238Z,9.58
2019-04-04T08:57:27.121Z,9.45
2019-04-04T08:59:56.917Z,10.43
2019-04-04T09:02:26.881Z,9.23
2019-04-04T09:04:56.972Z,9.90
2019-04-04T09:07:26.785Z,8.78
2019-04-04T09:09:56.797Z,9.63
2019-04-04T09:12:26.898Z,8.35
2019-04-04T09:14:56.839Z,8.48
2019-04-04T09:17:26.799Z,9.18
2019-04-04T09:19:56.987Z,10.08
2019-04-04T09:22:27.102Z,9.53
2019-04-04T09:24:57.028Z,9.15
2019-04-04T09:27:27.124Z,8.38
2019-04-04T09:29:56.969Z,9.20
2019-04-04T09:32:27.011Z,9.08
2019-04-04T09:34:58.078Z,8.65
2019-04-04T09:37:28.103Z,8.70
2019-04-04T09:39:58.146Z,8.95
2019-04-04T09:42:28.092Z,9.13
2019-04-04T09:44:58.030Z,8.98
2019-04-04T09:47:28.056Z,9.90
2019-04-04T09:49:57.921Z,9.80
2019-04-04T09:52:27.868Z,9.63
2019-04-04T09:54:57.841Z,10.53
2019-04-04T09:57:27.808Z,10.05
2019-04-04T09:59:57.828Z,9.85
2019-04-04T10:02:27.636Z,9.70
2019-04-04T10:04:57.757Z,11.00
2019-04-04T10:07:27.657Z,10.85
2019-04-04T10:09:57.807Z,10.50
2019-04-04T10:12:29.527Z,9.55
2019-04-04T10:14:59.250Z,9.48
2019-04-04T10:17:29.121Z,9.13
2019-04-04T10:19:59.163Z,9.83
2019-04-04T10:22:29.063Z,9.48
2019-04-04T10:24:59.039Z,9.38
2019-04-04T10:27:28.853Z,9.65
2019-04-04T10:29:58.990Z,9.43
2019-04-04T10:32:28.840Z,8.85
2019-04-04T10:34:58.876Z,9.08
2019-04-04T10:37:28.912Z,9.03
2019-04-04T10:39:59.082Z,9.03
2019-04-04T10:42:28.962Z,8.78
2019-04-04T10:44:58.952Z,9.18
2019-04-04T10:47:28.783Z,9.85
2019-04-04T10:49:58.682Z,8.90
2019-04-04T10:52:28.564Z,9.20
2019-04-04T10:55:01.348Z,9.30
2019-04-04T10:57:30.167Z,9.35
2019-04-04T11:00:03.065Z,9.43
2019-04-04T11:02:33.279Z,9.90
2019-04-04T11:05:03.689Z,10.20
2019-04-04T11:07:35.281Z,9.10
2019-04-04T11:10:06.036Z,9.75
2019-04-04T11:12:36.392Z,10.93
2019-04-04T11:15:06.453Z,10.05
2019-04-04T11:17:36.327Z,9.93
2019-04-04T11:20:06.971Z,9.93
2019-04-04T11:22:37.148Z,10.68
2019-04-04T11:25:07.001Z,10.32
2019-04-04T11:27:37.055Z,9.63
2019-04-04T11:30:08.714Z,9.60
2019-04-04T11:32:38.678Z,10.28
2019-04-04T11:35:08.679Z,9.60
2019-04-04T11:37:38.645Z,11.18
2019-04-04T11:40:08.636Z,10.55
2019-04-04T11:42:38.620Z,10.93
2019-04-04T11:45:08.669Z,10.78
2019-04-04T11:47:38.645Z,10.72
2019-04-04T11:50:08.619Z,10.85
2019-04-04T11:52:38.597Z,10.43
2019-04-04T11:55:08.584Z,11.35
2019-04-04T11:57:38.480Z,11.28
2019-04-04T12:00:09.074Z,11.03
2019-04-04T12:02:38.993Z,10.18
2019-04-04T12:05:08.965Z,11.18
2019-04-04T12:07:39.021Z,11.55
2019-04-04T12:10:09.171Z,9.38
2019-04-04T12:12:39.182Z,9.80
2019-04-04T12:15:09.003Z,9.45
2019-04-04T12:17:38.966Z,8.90
2019-04-04T12:20:08.753Z,9.13
2019-04-04T12:22:38.654Z,10.30
2019-04-04T12:25:08.493Z,9.50
2019-04-04T12:27:38.485Z,10.40
2019-04-04T12:30:09.184Z,11.25
2019-04-04T12:32:39.300Z,11.03
2019-04-04T12:35:09.202Z,10.35
2019-04-04T12:37:39.048Z,10.80
2019-04-04T12:40:19.949Z,10.48
2019-04-04T12:42:40.537Z,10.45
2019-04-04T12:45:10.379Z,11.10
2019-04-04T12:47:40.418Z,9.95
2019-04-04T12:50:10.417Z,10.08
2019-04-04T12:52:40.272Z,9.88
2019-04-04T12:55:10.980Z,10.03
2019-04-04T12:57:41.511Z,9.43
2019-04-04T13:00:11.588Z,9.68
2019-04-04T13:02:41.693Z,9.80
2019-04-04T13:05:11.968Z,9.45
2019-04-04T13:07:42.147Z,9.43
2019-04-04T13:10:12.435Z,10.80
2019-04-04T13:12:42.665Z,9.98
2019-04-04T13:15:12.674Z,9.58
2019-04-04T13:17:42.578Z,11.90
2019-04-04T13:20:12.597Z,10.45
2019-04-04T13:22:42.566Z,10.65
2019-04-04T13:25:12.598Z,10.53
2019-04-04T13:27:42.732Z,10.90
2019-04-04T13:30:13.786Z,11.38
2019-04-04T13:32:43.781Z,13.00
2019-04-04T13:35:13.748Z,14.58
2019-04-04T13:37:43.752Z,11.97
2019-04-04T13:40:13.800Z,11.45
2019-04-04T13:42:43.781Z,10.72
2019-04-04T13:45:13.774Z,11.48
2019-04-04T13:47:43.799Z,11.33
2019-04-04T13:50:13.820Z,11.15
2019-04-04T13:52:43.715Z,11.28
2019-04-04T13:55:13.549Z,10.15
2019-04-04T13:57:45.444Z,11.28
2019-04-04T14:00:16.192Z,11.10
2019-04-04T14:02:46.075Z,11.53
2019-04-04T14:05:16.041Z,13.15
2019-04-04T14:07:46.121Z,14.35
2019-04-04T14:10:17.504Z,16.45
2019-04-04T14:12:47.670Z,15.30
2019-04-04T14:15:19.193Z,15.95
2019-04-04T14:17:49.075Z,16.45
2019-04-04T14:20:19.123Z,15.72
2019-04-04T14:22:51.153Z,13.15
2019-04-04T14:25:20.712Z,13.85
2019-04-04T14:27:50.551Z,12.90
2019-04-04T14:30:20.585Z,13.45
2019-04-04T14:32:52.118Z,7.72
2019-04-04T14:35:21.951Z,7.30
2019-04-04T14:37:54.507Z,7.70
2019-04-04T14:40:23.278Z,8.23
2019-04-04T14:42:53.327Z,8.35
2019-04-04T14:45:23.231Z,9.63
2019-04-04T14:47:53.181Z,8.68
2019-04-04T14:50:23.093Z,9.33
2019-04-04T14:52:53.044Z,8.90
2019-04-04T14:55:22.865Z,9.00
2019-04-04T14:57:52.713Z,9.98
2019-04-04T15:00:22.783Z,10.08
2019-04-04T15:02:52.748Z,9.88
2019-04-04T15:05:22.645Z,9.75
2019-04-04T15:07:52.539Z,10.45
2019-04-04T15:10:22.454Z,11.18
2019-04-04T15:12:52.347Z,10.05
2019-04-04T15:15:22.320Z,10.00
2019-04-04T15:17:52.236Z,10.55
2019-04-04T15:20:22.256Z,9.65
2019-04-04T15:22:52.180Z,10.75
2019-04-04T15:25:22.142Z,10.08
2019-04-04T15:27:52.202Z,10.23
2019-04-04T15:30:22.092Z,9.38
2019-04-04T15:32:51.914Z,9.10
2019-04-04T15:35:21.825Z,9.30
2019-04-04T15:37:51.639Z,9.58
2019-04-04T15:40:21.641Z,9.43
2019-04-04T15:42:51.696Z,10.15
2019-04-04T15:45:21.596Z,9.55
2019-04-04T15:47:51.500Z,9.80
2019-04-04T15:50:21.323Z,9.13
2019-04-04T15:52:51.213Z,10.18
2019-04-04T15:55:21.109Z,11.05
2019-04-04T15:57:51.185Z,10.72
2019-04-04T16:00:21.087Z,12.75
2019-04-04T16:02:51.190Z,12.00
2019-04-04T16:05:21.025Z,11.28
2019-04-04T16:07:50.951Z,11.15
2019-04-04T16:10:20.770Z,11.05
2019-04-04T16:12:50.847Z,10.72
2019-04-04T16:15:20.715Z,11.22
2019-04-04T16:17:50.597Z,11.55
2019-04-04T16:20:20.850Z,11.00
2019-04-04T16:22:50.733Z,10.58
2019-04-04T16:25:20.675Z,10.28
2019-04-04T16:27:50.888Z,17.48
2019-04-04T16:30:20.764Z,10.60
2019-04-04T16:32:50.673Z,11.28
2019-04-04T16:35:20.661Z,10.43
2019-04-04T16:37:50.638Z,10.00
2019-04-04T16:40:20.636Z,9.85
2019-04-04T16:42:50.616Z,9.23
2019-04-04T16:45:20.656Z,9.45
2019-04-04T16:47:50.703Z,9.30
2019-04-04T16:50:20.664Z,10.30
2019-04-04T16:52:50.792Z,10.28
2019-04-04T16:55:20.676Z,9.08
2019-04-04T16:57:50.738Z,9.70
2019-04-04T17:00:21.796Z,10.82
2019-04-04T17:02:51.697Z,10.30
2019-04-04T17:05:21.826Z,9.93
2019-04-04T17:07:51.991Z,10.88
2019-04-04T17:10:22.019Z,10.20
2019-04-04T17:12:52.047Z,10.32
2019-04-04T17:15:22.014Z,11.20
2019-04-04T17:17:52.054Z,11.30
2019-04-04T17:20:21.999Z,12.33
2019-04-04T17:22:52.133Z,12.58
2019-04-04T17:25:22.214Z,12.45
2019-04-04T17:27:52.039Z,12.98
2019-04-04T17:30:22.176Z,13.75
2019-04-04T17:32:52.340Z,13.15
2019-04-04T17:35:22.452Z,13.15
2019-04-04T17:37:52.481Z,13.18
2019-04-04T17:40:23.007Z,13.60
2019-04-04T17:42:53.284Z,12.37
2019-04-04T17:45:23.229Z,12.98
2019-04-04T17:47:53.527Z,13.93
2019-04-04T17:50:23.422Z,14.03
2019-04-04T17:52:53.844Z,13.75
2019-04-04T17:55:24.153Z,13.62
2019-04-04T17:57:54.400Z,13.43
2019-04-04T18:00:25.836Z,13.03
2019-04-04T18:02:55.814Z,13.18
2019-04-04T18:05:26.024Z,12.05
2019-04-04T18:07:55.854Z,12.05
2019-04-04T18:10:25.952Z,13.20
2019-04-04T18:12:55.939Z,12.10
2019-04-04T18:15:25.829Z,11.35
2019-04-04T18:17:56.776Z,12.03
2019-04-04T18:20:26.837Z,11.95
2019-04-04T18:22:56.894Z,12.65
2019-04-04T18:25:26.797Z,10.93
2019-04-04T18:27:57.037Z,7.78
